sensor_id;sensor_type;location;lat;lon;timestamp;pressure;altitude;pressure_sealevel;temperature;humidity
36010;BME280;22076;52.182;5.404;2024-01-30T00:00:23;102820.31;;;10.05;100.00
36010;BME280;22076;52.182;5.404;2024-01-30T00:02:49;102816.81;;;10.05;100.00
36010;BME280;22076;52.182;5.404;2024-01-30T00:05:16;102817.78;;;10.01;100.00
36010;BME280;22076;52.182;5.404;2024-01-30T00:07:43;102820.53;;;9.95;100.00
36010;BME280;22076;52.182;5.404;2024-01-30T00:10:11;102829.06;;;10.03;100.00
36010;BME280;22076;52.182;5.404;2024-01-30T00:12:38;102817.78;;;10.01;100.00
36010;BME280;22076;52.182;5.404;2024-01-30T00:15:04;102821.28;;;10.00;100.00
36010;BME280;22076;52.182;5.404;2024-01-30T00:17:33;102817.06;;;9.94;100.00
36010;BME280;22076;52.182;5.404;2024-01-30T00:20:00;102817.91;;;9.95;100.00
36010;BME280;22076;52.182;5.404;2024-01-30T00:22:30;102817.97;;;9.93;100.00
36010;BME280;22076;52.182;5.404;2024-01-30T00:24:56;102817.09;;;9.92;100.00
36010;BME280;22076;52.182;5.404;2024-01-30T00:27:25;102817.00;;;9.97;100.00
36010;BME280;22076;52.182;5.404;2024-01-30T00:29:52;102819.56;;;9.99;100.00
36010;BME280;22076;52.182;5.404;2024-01-30T00:32:19;102811.84;;;9.94;100.00
36010;BME280;22076;52.182;5.404;2024-01-30T00:34:45;102818.00;;;9.91;100.00
36010;BME280;22076;52.182;5.404;2024-01-30T00:37:12;102815.34;;;9.93;100.00
36010;BME280;22076;52.182;5.404;2024-01-30T00:39:38;102817.16;;;9.91;100.00
36010;BME280;22076;52.182;5.404;2024-01-30T00:42:05;102815.41;;;9.90;100.00
36010;BME280;22076;52.182;5.404;2024-01-30T00:44:34;102812.69;;;9.95;100.00
36010;BME280;22076;52.182;5.404;2024-01-30T00:47:02;102815.31;;;9.95;100.00
36010;BME280;22076;52.182;5.404;2024-01-30T00:49:29;102819.72;;;9.92;100.00
36010;BME280;22076;52.182;5.404;2024-01-30T00:51:55;102816.28;;;9.90;100.00
36010;BME280;22076;52.182;5.404;2024-01-30T00:54:22;102818.91;;;9.89;100.00
36010;BME280;22076;52.182;5.404;2024-01-30T00:56:49;102818.09;;;9.87;100.00
36010;BME280;22076;52.182;5.404;2024-01-30T00:59:15;102816.41;;;9.84;100.00
36010;BME280;22076;52.182;5.404;2024-01-30T01:01:43;102812.06;;;9.85;100.00
36010;BME280;22076;52.182;5.404;2024-01-30T01:04:09;102822.56;;;9.80;100.00
36010;BME280;22076;52.182;5.404;2024-01-30T01:06:36;102809.53;;;9.80;100.00
36010;BME280;22076;52.182;5.404;2024-01-30T01:09:03;102807.88;;;9.76;100.00
36010;BME280;22076;52.182;5.404;2024-01-30T01:11:29;102803.59;;;9.73;100.00
36010;BME280;22076;52.182;5.404;2024-01-30T01:13:56;102798.38;;;9.73;100.00
36010;BME280;22076;52.182;5.404;2024-01-30T01:16:23;102806.28;;;9.70;100.00
36010;BME280;22076;52.182;5.404;2024-01-30T01:18:51;102800.13;;;9.73;100.00
36010;BME280;22076;52.182;5.404;2024-01-30T01:21:17;102793.38;;;9.63;100.00
36010;BME280;22076;52.182;5.404;2024-01-30T01:23:44;102792.63;;;9.57;100.00
36010;BME280;22076;52.182;5.404;2024-01-30T01:26:10;102784.81;;;9.56;100.00
36010;BME280;22076;52.182;5.404;2024-01-30T01:28:37;102782.38;;;9.48;100.00
36010;BME280;22076;52.182;5.404;2024-01-30T01:31:05;102776.41;;;9.41;100.00
36010;BME280;22076;52.182;5.404;2024-01-30T01:33:32;102778.06;;;9.46;100.00
36010;BME280;22076;52.182;5.404;2024-01-30T01:36:00;102771.03;;;9.49;100.00
36010;BME280;22076;52.182;5.404;2024-01-30T01:38:27;102775.38;;;9.49;100.00
36010;BME280;22076;52.182;5.404;2024-01-30T01:40:54;102779.75;;;9.48;100.00
36010;BME280;22076;52.182;5.404;2024-01-30T01:43:21;102774.63;;;9.43;100.00
36010;BME280;22076;52.182;5.404;2024-01-30T01:45:47;102780.66;;;9.47;100.00
36010;BME280;22076;52.182;5.404;2024-01-30T01:48:14;102784.06;;;9.51;100.00
36010;BME280;22076;52.182;5.404;2024-01-30T01:50:41;102787.44;;;9.56;100.00
36010;BME280;22076;52.182;5.404;2024-01-30T01:53:10;102779.53;;;9.59;100.00
36010;BME280;22076;52.182;5.404;2024-01-30T01:55:37;102779.56;;;9.57;100.00
36010;BME280;22076;52.182;5.404;2024-01-30T01:58:04;102773.53;;;9.54;100.00
36010;BME280;22076;52.182;5.404;2024-01-30T02:00:31;102786.66;;;9.51;100.00
36010;BME280;22076;52.182;5.404;2024-01-30T02:02:58;102781.44;;;9.51;100.00
36010;BME280;22076;52.182;5.404;2024-01-30T02:05:26;102775.38;;;9.49;100.00
36010;BME280;22076;52.182;5.404;2024-01-30T02:07:52;102771.16;;;9.43;100.00
36010;BME280;22076;52.182;5.404;2024-01-30T02:10:21;102770.13;;;9.50;100.00
36010;BME280;22076;52.182;5.404;2024-01-30T02:12:48;102763.19;;;9.49;100.00
36010;BME280;22076;52.182;5.404;2024-01-30T02:15:15;102761.63;;;9.42;100.00
36010;BME280;22076;52.182;5.404;2024-01-30T02:17:41;102753.78;;;9.42;100.00
36010;BME280;22076;52.182;5.404;2024-01-30T02:20:09;102765.03;;;9.44;100.00
36010;BME280;22076;52.182;5.404;2024-01-30T02:22:37;102773.75;;;9.45;100.00
36010;BME280;22076;52.182;5.404;2024-01-30T02:25:05;102764.06;;;9.50;100.00
36010;BME280;22076;52.182;5.404;2024-01-30T02:27:31;102773.66;;;9.48;100.00
36010;BME280;22076;52.182;5.404;2024-01-30T02:29:58;102767.63;;;9.46;100.00
36010;BME280;22076;52.182;5.404;2024-01-30T02:32:24;102769.44;;;9.42;100.00
36010;BME280;22076;52.182;5.404;2024-01-30T02:34:51;102784.22;;;9.43;100.00
36010;BME280;22076;52.182;5.404;2024-01-30T02:37:17;102780.72;;;9.42;100.00
36010;BME280;22076;52.182;5.404;2024-01-30T02:39:45;102778.00;;;9.49;100.00
36010;BME280;22076;52.182;5.404;2024-01-30T02:42:12;102761.59;;;9.43;100.00
36010;BME280;22076;52.182;5.404;2024-01-30T02:44:38;102759.81;;;9.44;100.00
36010;BME280;22076;52.182;5.404;2024-01-30T02:47:05;102766.75;;;9.45;100.00
36010;BME280;22076;52.182;5.404;2024-01-30T02:49:31;102767.75;;;9.39;100.00
36010;BME280;22076;52.182;5.404;2024-01-30T02:51:58;102753.94;;;9.34;100.00
36010;BME280;22076;52.182;5.404;2024-01-30T02:54:24;102748.72;;;9.34;100.00
36010;BME280;22076;52.182;5.404;2024-01-30T02:56:52;102727.88;;;9.34;100.00
36010;BME280;22076;52.182;5.404;2024-01-30T02:59:19;102740.97;;;9.31;100.00
36010;BME280;22076;52.182;5.404;2024-01-30T03:01:45;102748.03;;;9.26;100.00
36010;BME280;22076;52.182;5.404;2024-01-30T03:04:13;102733.19;;;9.28;100.00
36010;BME280;22076;52.182;5.404;2024-01-30T03:06:44;102733.09;;;9.34;100.00
36010;BME280;22076;52.182;5.404;2024-01-30T03:09:11;102721.03;;;9.29;100.00
36010;BME280;22076;52.182;5.404;2024-01-30T03:11:38;102721.81;;;9.32;100.00
36010;BME280;22076;52.182;5.404;2024-01-30T03:14:06;102732.22;;;9.34;100.00
36010;BME280;22076;52.182;5.404;2024-01-30T03:16:33;102724.56;;;9.26;100.00
36010;BME280;22076;52.182;5.404;2024-01-30T03:18:59;102715.91;;;9.24;100.00
36010;BME280;22076;52.182;5.404;2024-01-30T03:21:27;102716.81;;;9.21;100.00
36010;BME280;22076;52.182;5.404;2024-01-30T03:23:53;102704.50;;;9.28;100.00
36010;BME280;22076;52.182;5.404;2024-01-30T03:26:20;102706.31;;;9.26;100.00
36010;BME280;22076;52.182;5.404;2024-01-30T03:28:46;102705.38;;;9.29;100.00
36010;BME280;22076;52.182;5.404;2024-01-30T03:31:15;102707.97;;;9.30;100.00
36010;BME280;22076;52.182;5.404;2024-01-30T03:33:42;102705.38;;;9.29;100.00
36010;BME280;22076;52.182;5.404;2024-01-30T03:36:09;102707.00;;;9.34;100.00
36010;BME280;22076;52.182;5.404;2024-01-30T03:38:35;102708.00;;;9.27;100.00
36010;BME280;22076;52.182;5.404;2024-01-30T03:41:02;102707.88;;;9.33;100.00
36010;BME280;22076;52.182;5.404;2024-01-30T03:43:29;102702.75;;;9.30;100.00
36010;BME280;22076;52.182;5.404;2024-01-30T03:45:55;102698.31;;;9.32;100.00
36010;BME280;22076;52.182;5.404;2024-01-30T03:48:23;102694.84;;;9.33;100.00
36010;BME280;22076;52.182;5.404;2024-01-30T03:50:51;102692.94;;;9.40;100.00
36010;BME280;22076;52.182;5.404;2024-01-30T03:53:17;102679.84;;;9.43;100.00
36010;BME280;22076;52.182;5.404;2024-01-30T03:55:44;102686.81;;;9.42;100.00
36010;BME280;22076;52.182;5.404;2024-01-30T03:58:10;102687.72;;;9.40;100.00
36010;BME280;22076;52.182;5.404;2024-01-30T04:00:37;102676.53;;;9.35;100.00
36010;BME280;22076;52.182;5.404;2024-01-30T04:03:04;102686.81;;;9.42;100.00
36010;BME280;22076;52.182;5.404;2024-01-30T04:05:32;102694.59;;;9.46;100.00
36010;BME280;22076;52.182;5.404;2024-01-30T04:07:59;102688.69;;;9.36;100.00
36010;BME280;22076;52.182;5.404;2024-01-30T04:10:25;102690.34;;;9.40;100.00
36010;BME280;22076;52.182;5.404;2024-01-30T04:12:52;102692.22;;;9.33;100.00
36010;BME280;22076;52.182;5.404;2024-01-30T04:15:19;102705.97;;;9.41;100.00
36010;BME280;22076;52.182;5.404;2024-01-30T04:17:45;102705.09;;;9.41;100.00
36010;BME280;22076;52.182;5.404;2024-01-30T04:20:13;102702.41;;;9.44;100.00
36010;BME280;22076;52.182;5.404;2024-01-30T04:22:42;102702.47;;;9.42;100.00
36010;BME280;22076;52.182;5.404;2024-01-30T04:25:09;102701.69;;;9.37;100.00
36010;BME280;22076;52.182;5.404;2024-01-30T04:27:35;102692.16;;;9.38;100.00
36010;BME280;22076;52.182;5.404;2024-01-30T04:30:03;102692.91;;;9.43;100.00
36010;BME280;22076;52.182;5.404;2024-01-30T04:32:29;102683.41;;;9.40;100.00
36010;BME280;22076;52.182;5.404;2024-01-30T04:34:56;102679.06;;;9.39;100.00
36010;BME280;22076;52.182;5.404;2024-01-30T04:37:23;102672.97;;;9.40;100.00
36010;BME280;22076;52.182;5.404;2024-01-30T04:39:51;102681.53;;;9.46;100.00
36010;BME280;22076;52.182;5.404;2024-01-30T04:42:17;102679.03;;;9.41;100.00
36010;BME280;22076;52.182;5.404;2024-01-30T04:44:44;102673.88;;;9.38;100.00
36010;BME280;22076;52.182;5.404;2024-01-30T04:47:10;102668.63;;;9.39;100.00
36010;BME280;22076;52.182;5.404;2024-01-30T04:49:38;102659.75;;;9.47;100.00
36010;BME280;22076;52.182;5.404;2024-01-30T04:52:04;102662.38;;;9.47;100.00
36010;BME280;22076;52.182;5.404;2024-01-30T04:54:31;102666.66;;;9.51;100.00
36010;BME280;22076;52.182;5.404;2024-01-30T04:56:59;102668.34;;;9.53;100.00
36010;BME280;22076;52.182;5.404;2024-01-30T04:59:26;102665.94;;;9.42;100.00
36010;BME280;22076;52.182;5.404;2024-01-30T05:01:52;102668.56;;;9.42;100.00
36010;BME280;22076;52.182;5.404;2024-01-30T05:04:19;102675.53;;;9.42;100.00
36010;BME280;22076;52.182;5.404;2024-01-30T05:06:46;102677.09;;;9.49;100.00
36010;BME280;22076;52.182;5.404;2024-01-30T05:09:12;102673.72;;;9.46;100.00
36010;BME280;22076;52.182;5.404;2024-01-30T05:11:39;102673.56;;;9.52;100.00
36010;BME280;22076;52.182;5.404;2024-01-30T05:14:07;102670.09;;;9.51;100.00
36010;BME280;22076;52.182;5.404;2024-01-30T05:16:34;102665.06;;;9.43;100.00
36010;BME280;22076;52.182;5.404;2024-01-30T05:19:01;102664.09;;;9.48;100.00
36010;BME280;22076;52.182;5.404;2024-01-30T05:21:27;102670.13;;;9.50;100.00
36010;BME280;22076;52.182;5.404;2024-01-30T05:23:54;102677.84;;;9.56;100.00
36010;BME280;22076;52.182;5.404;2024-01-30T05:26:20;102664.75;;;9.57;100.00
36010;BME280;22076;52.182;5.404;2024-01-30T05:28:48;102660.47;;;9.55;100.00
36010;BME280;22076;52.182;5.404;2024-01-30T05:31:15;102660.41;;;9.56;100.00
36010;BME280;22076;52.182;5.404;2024-01-30T05:33:42;102647.50;;;9.50;100.00
36010;BME280;22076;52.182;5.404;2024-01-30T05:36:11;102636.97;;;9.55;100.00
36010;BME280;22076;52.182;5.404;2024-01-30T05:38:38;102636.19;;;9.51;100.00
36010;BME280;22076;52.182;5.404;2024-01-30T05:41:04;102648.25;;;9.55;100.00
36010;BME280;22076;52.182;5.404;2024-01-30T05:43:31;102654.34;;;9.56;100.00
36010;BME280;22076;52.182;5.404;2024-01-30T05:45:57;102662.19;;;9.54;100.00
36010;BME280;22076;52.182;5.404;2024-01-30T05:48:25;102657.81;;;9.56;100.00
36010;BME280;22076;52.182;5.404;2024-01-30T05:50:52;102651.75;;;9.56;100.00
36010;BME280;22076;52.182;5.404;2024-01-30T05:53:18;102654.31;;;9.57;100.00
36010;BME280;22076;52.182;5.404;2024-01-30T05:55:45;102645.66;;;9.55;100.00
36010;BME280;22076;52.182;5.404;2024-01-30T05:58:11;102643.03;;;9.55;100.00
36010;BME280;22076;52.182;5.404;2024-01-30T06:00:38;102655.25;;;9.55;100.00
36010;BME280;22076;52.182;5.404;2024-01-30T06:03:04;102642.19;;;9.55;100.00
36010;BME280;22076;52.182;5.404;2024-01-30T06:05:32;102652.50;;;9.61;100.00
36010;BME280;22076;52.182;5.404;2024-01-30T06:07:59;102644.72;;;9.58;100.00
36010;BME280;22076;52.182;5.404;2024-01-30T06:10:25;102645.56;;;9.60;100.00
36010;BME280;22076;52.182;5.404;2024-01-30T06:12:52;102655.13;;;9.59;100.00
36010;BME280;22076;52.182;5.404;2024-01-30T06:15:18;102652.63;;;9.55;100.00
36010;BME280;22076;52.182;5.404;2024-01-30T06:17:46;102644.66;;;9.61;100.00
36010;BME280;22076;52.182;5.404;2024-01-30T06:20:12;102646.38;;;9.62;100.00
36010;BME280;22076;52.182;5.404;2024-01-30T06:22:40;102646.34;;;9.64;100.00
36010;BME280;22076;52.182;5.404;2024-01-30T06:25:07;102637.59;;;9.65;100.00
36010;BME280;22076;52.182;5.404;2024-01-30T06:27:34;102633.09;;;9.71;100.00
36010;BME280;22076;52.182;5.404;2024-01-30T06:30:00;102633.81;;;9.78;100.00
36010;BME280;22076;52.182;5.404;2024-01-30T06:32:27;102626.94;;;9.74;100.00
36010;BME280;22076;52.182;5.404;2024-01-30T06:34:54;102629.72;;;9.68;100.00
36010;BME280;22076;52.182;5.404;2024-01-30T06:37:20;102631.22;;;9.78;100.00
36010;BME280;22076;52.182;5.404;2024-01-30T06:39:49;102641.53;;;9.83;100.00
36010;BME280;22076;52.182;5.404;2024-01-30T06:42:18;102637.19;;;9.82;100.00
36010;BME280;22076;52.182;5.404;2024-01-30T06:44:45;102631.84;;;9.88;100.00
36010;BME280;22076;52.182;5.404;2024-01-30T06:47:11;102633.47;;;9.94;100.00
36010;BME280;22076;52.182;5.404;2024-01-30T06:49:38;102643.06;;;9.91;100.00
36010;BME280;22076;52.182;5.404;2024-01-30T06:52:05;102645.59;;;9.95;100.00
36010;BME280;22076;52.182;5.404;2024-01-30T06:54:31;102651.03;;;9.85;100.00
36010;BME280;22076;52.182;5.404;2024-01-30T06:56:59;102646.53;;;9.92;100.00
36010;BME280;22076;52.182;5.404;2024-01-30T06:59:26;102644.84;;;9.91;100.00
36010;BME280;22076;52.182;5.404;2024-01-30T07:01:52;102649.13;;;9.92;100.00
36010;BME280;22076;52.182;5.404;2024-01-30T07:04:19;102640.34;;;9.96;100.00
36010;BME280;22076;52.182;5.404;2024-01-30T07:06:45;102656.03;;;9.96;100.00
36010;BME280;22076;52.182;5.404;2024-01-30T07:09:12;102650.72;;;9.99;100.00
36010;BME280;22076;52.182;5.404;2024-01-30T07:11:39;102648.19;;;9.96;100.00
36010;BME280;22076;52.182;5.404;2024-01-30T07:14:09;102644.56;;;10.02;100.00
36010;BME280;22076;52.182;5.404;2024-01-30T07:16:36;102637.00;;;9.89;100.00
36010;BME280;22076;52.182;5.404;2024-01-30T07:19:02;102636.88;;;9.96;100.00
36010;BME280;22076;52.182;5.404;2024-01-30T07:21:29;102657.91;;;9.89;100.00
36010;BME280;22076;52.182;5.404;2024-01-30T07:23:56;102646.56;;;9.90;100.00
36010;BME280;22076;52.182;5.404;2024-01-30T07:26:22;102643.91;;;9.94;100.00
36010;BME280;22076;52.182;5.404;2024-01-30T07:28:49;102651.66;;;9.97;100.00
36010;BME280;22076;52.182;5.404;2024-01-30T07:31:17;102655.97;;;9.98;100.00
36010;BME280;22076;52.182;5.404;2024-01-30T07:33:46;102658.41;;;10.05;100.00
36010;BME280;22076;52.182;5.404;2024-01-30T07:36:12;102662.84;;;10.02;100.00
36010;BME280;22076;52.182;5.404;2024-01-30T07:38:39;102654.06;;;10.04;100.00
36010;BME280;22076;52.182;5.404;2024-01-30T07:41:06;102669.03;;;9.98;100.00
36010;BME280;22076;52.182;5.404;2024-01-30T07:43:33;102667.28;;;9.98;100.00
36010;BME280;22076;52.182;5.404;2024-01-30T07:46:01;102671.28;;;10.12;100.00
36010;BME280;22076;52.182;5.404;2024-01-30T07:48:29;102666.19;;;10.07;100.00
36010;BME280;22076;52.182;5.404;2024-01-30T07:50:56;102666.16;;;10.08;100.00
36010;BME280;22076;52.182;5.404;2024-01-30T07:53:23;102672.16;;;10.12;100.00
36010;BME280;22076;52.182;5.404;2024-01-30T07:55:50;102666.78;;;10.18;100.00
36010;BME280;22076;52.182;5.404;2024-01-30T07:58:17;102675.38;;;10.23;100.00
36010;BME280;22076;52.182;5.404;2024-01-30T08:00:44;102668.28;;;10.27;100.00
36010;BME280;22076;52.182;5.404;2024-01-30T08:03:14;102670.78;;;10.32;100.00
36010;BME280;22076;52.182;5.404;2024-01-30T08:05:45;102669.22;;;10.26;100.00
36010;BME280;22076;52.182;5.404;2024-01-30T08:08:11;102674.44;;;10.24;100.00
36010;BME280;22076;52.182;5.404;2024-01-30T08:10:38;102669.22;;;10.26;100.00
36010;BME280;22076;52.182;5.404;2024-01-30T08:13:05;102669.91;;;10.33;100.00
36010;BME280;22076;52.182;5.404;2024-01-30T08:15:31;102672.56;;;10.30;100.00
36010;BME280;22076;52.182;5.404;2024-01-30T08:17:58;102678.69;;;10.30;100.00
36010;BME280;22076;52.182;5.404;2024-01-30T08:20:25;102677.88;;;10.27;100.00
36010;BME280;22076;52.182;5.404;2024-01-30T08:22:53;102675.69;;;10.46;100.00
36010;BME280;22076;52.182;5.404;2024-01-30T08:25:19;102673.00;;;10.49;100.00
36010;BME280;22076;52.182;5.404;2024-01-30T08:27:47;102673.03;;;10.47;100.00
36010;BME280;22076;52.182;5.404;2024-01-30T08:30:14;102677.31;;;10.50;100.00
36010;BME280;22076;52.182;5.404;2024-01-30T08:32:41;102673.59;;;10.58;100.00
36010;BME280;22076;52.182;5.404;2024-01-30T08:35:08;102669.09;;;10.64;100.00
36010;BME280;22076;52.182;5.404;2024-01-30T08:37:35;102670.59;;;10.72;100.00
36010;BME280;22076;52.182;5.404;2024-01-30T08:40:04;102668.03;;;10.71;100.00
36010;BME280;22076;52.182;5.404;2024-01-30T08:42:31;102671.69;;;10.65;100.00
36010;BME280;22076;52.182;5.404;2024-01-30T08:44:58;102657.47;;;10.76;100.00
36010;BME280;22076;52.182;5.404;2024-01-30T08:47:25;102661.59;;;10.83;100.00
36010;BME280;22076;52.182;5.404;2024-01-30T08:49:52;102657.16;;;10.86;100.00
36010;BME280;22076;52.182;5.404;2024-01-30T08:52:18;102658.00;;;10.87;100.00
36010;BME280;22076;52.182;5.404;2024-01-30T08:54:45;102652.50;;;10.96;100.00
36010;BME280;22076;52.182;5.404;2024-01-30T08:57:13;102653.22;;;11.01;100.00
36010;BME280;22076;52.182;5.404;2024-01-30T08:59:40;102652.38;;;11.01;100.00
36010;BME280;22076;52.182;5.404;2024-01-30T09:02:09;102659.38;;;11.00;100.00
36010;BME280;22076;52.182;5.404;2024-01-30T09:04:38;102659.19;;;11.06;100.00
36010;BME280;22076;52.182;5.404;2024-01-30T09:07:05;102663.19;;;11.20;100.00
36010;BME280;22076;52.182;5.404;2024-01-30T09:09:34;102663.91;;;11.25;100.00
36010;BME280;22076;52.182;5.404;2024-01-30T09:12:01;102651.38;;;11.35;100.00
36010;BME280;22076;52.182;5.404;2024-01-30T09:14:33;102659.75;;;11.46;100.00
36010;BME280;22076;52.182;5.404;2024-01-30T09:17:01;102664.09;;;11.47;100.00
36010;BME280;22076;52.182;5.404;2024-01-30T09:19:28;102667.50;;;11.49;100.00
36010;BME280;22076;52.182;5.404;2024-01-30T09:21:56;102669.28;;;11.49;100.00
36010;BME280;22076;52.182;5.404;2024-01-30T09:24:22;102678.94;;;11.47;100.00
36010;BME280;22076;52.182;5.404;2024-01-30T09:26:49;102676.13;;;11.53;100.00
36010;BME280;22076;52.182;5.404;2024-01-30T09:29:16;102672.69;;;11.51;100.00
36010;BME280;22076;52.182;5.404;2024-01-30T09:31:45;102678.50;;;11.61;100.00
36010;BME280;22076;52.182;5.404;2024-01-30T09:34:11;102692.31;;;11.66;100.00
36010;BME280;22076;52.182;5.404;2024-01-30T09:36:45;102685.41;;;11.63;100.00
36010;BME280;22076;52.182;5.404;2024-01-30T09:39:13;102681.97;;;11.61;100.00
36010;BME280;22076;52.182;5.404;2024-01-30T09:41:45;102690.06;;;11.53;100.00
36010;BME280;22076;52.182;5.404;2024-01-30T09:44:15;102688.13;;;11.60;100.00
36010;BME280;22076;52.182;5.404;2024-01-30T09:46:47;102704.78;;;11.57;100.00
36010;BME280;22076;52.182;5.404;2024-01-30T09:49:13;102697.78;;;11.58;100.00
36010;BME280;22076;52.182;5.404;2024-01-30T09:51:41;102712.31;;;11.68;100.00
36010;BME280;22076;52.182;5.404;2024-01-30T09:54:08;102705.34;;;11.67;100.00
36010;BME280;22076;52.182;5.404;2024-01-30T09:56:36;102707.84;;;11.72;100.00
36010;BME280;22076;52.182;5.404;2024-01-30T09:59:02;102706.13;;;11.71;100.00
36010;BME280;22076;52.182;5.404;2024-01-30T10:01:29;102708.16;;;11.61;100.00
36010;BME280;22076;52.182;5.404;2024-01-30T10:03:59;102713.22;;;11.67;100.00
36010;BME280;22076;52.182;5.404;2024-01-30T10:06:25;102710.47;;;11.72;100.00
36010;BME280;22076;52.182;5.404;2024-01-30T10:08:53;102705.22;;;11.72;100.00
36010;BME280;22076;52.182;5.404;2024-01-30T10:11:19;102700.88;;;11.71;100.00
36010;BME280;22076;52.182;5.404;2024-01-30T10:13:47;102711.13;;;11.79;100.00
36010;BME280;22076;52.182;5.404;2024-01-30T10:16:14;102699.69;;;11.81;100.00
36010;BME280;22076;52.182;5.404;2024-01-30T10:18:42;102713.91;;;11.72;100.00
36010;BME280;22076;52.182;5.404;2024-01-30T10:21:10;102706.53;;;11.85;100.00
36010;BME280;22076;52.182;5.404;2024-01-30T10:23:37;102705.88;;;11.79;100.00
36010;BME280;22076;52.182;5.404;2024-01-30T10:26:04;102691.88;;;11.80;100.00
36010;BME280;22076;52.182;5.404;2024-01-30T10:28:31;102701.97;;;11.92;100.00
36010;BME280;22076;52.182;5.404;2024-01-30T10:30:58;102706.53;;;12.14;100.00
36010;BME280;22076;52.182;5.404;2024-01-30T10:33:26;102721.59;;;12.07;100.00
36010;BME280;22076;52.182;5.404;2024-01-30T10:35:55;102713.50;;;12.15;100.00
36010;BME280;22076;52.182;5.404;2024-01-30T10:38:28;102699.84;;;12.05;100.00
36010;BME280;22076;52.182;5.404;2024-01-30T10:40:56;102692.16;;;11.99;100.00
36010;BME280;22076;52.182;5.404;2024-01-30T10:43:24;102710.63;;;11.96;100.00
36010;BME280;22076;52.182;5.404;2024-01-30T10:45:57;102714.66;;;12.06;100.00
36010;BME280;22076;52.182;5.404;2024-01-30T10:48:29;102712.38;;;11.94;100.00
36010;BME280;22076;52.182;5.404;2024-01-30T10:50:59;102713.34;;;11.91;100.00
36010;BME280;22076;52.182;5.404;2024-01-30T10:53:28;102714.59;;;12.07;100.00
36010;BME280;22076;52.182;5.404;2024-01-30T10:55:57;102732.28;;;12.01;100.00
36010;BME280;22076;52.182;5.404;2024-01-30T10:58:26;102714.84;;;12.00;100.00
36010;BME280;22076;52.182;5.404;2024-01-30T11:00:54;102719.25;;;11.99;100.00
36010;BME280;22076;52.182;5.404;2024-01-30T11:03:21;102721.81;;;12.01;100.00
36010;BME280;22076;52.182;5.404;2024-01-30T11:05:49;102719.66;;;12.14;100.00
36010;BME280;22076;52.182;5.404;2024-01-30T11:08:22;102733.84;;;12.33;100.00
36010;BME280;22076;52.182;5.404;2024-01-30T11:10:55;102735.34;;;12.40;100.00
36010;BME280;22076;52.182;5.404;2024-01-30T11:13:22;102739.69;;;12.42;100.00
36010;BME280;22076;52.182;5.404;2024-01-30T11:15:52;102737.94;;;12.42;100.00
36010;BME280;22076;52.182;5.404;2024-01-30T11:18:23;102740.19;;;12.53;100.00
36010;BME280;22076;52.182;5.404;2024-01-30T11:20:50;102754.56;;;12.41;100.00
36010;BME280;22076;52.182;5.404;2024-01-30T11:23:17;102749.06;;;12.49;100.00
36010;BME280;22076;52.182;5.404;2024-01-30T11:25:43;102762.63;;;12.35;100.00
36010;BME280;22076;52.182;5.404;2024-01-30T11:28:14;102765.03;;;12.41;100.00
36010;BME280;22076;52.182;5.404;2024-01-30T11:30:42;102751.38;;;12.31;100.00
36010;BME280;22076;52.182;5.404;2024-01-30T11:33:10;102768.38;;;12.46;100.00
36010;BME280;22076;52.182;5.404;2024-01-30T11:35:39;102770.47;;;12.62;100.00
36010;BME280;22076;52.182;5.404;2024-01-30T11:38:07;102783.19;;;12.47;100.00
36010;BME280;22076;52.182;5.404;2024-01-30T11:40:35;102774.13;;;12.31;100.00
36010;BME280;22076;52.182;5.404;2024-01-30T11:43:03;102794.38;;;12.26;100.00
36010;BME280;22076;52.182;5.404;2024-01-30T11:45:32;102806.56;;;12.27;100.00
36010;BME280;22076;52.182;5.404;2024-01-30T11:47:59;102810.38;;;12.16;100.00
36010;BME280;22076;52.182;5.404;2024-01-30T11:50:29;102821.16;;;12.07;100.00
36010;BME280;22076;52.182;5.404;2024-01-30T11:52:55;102811.81;;;11.98;100.00
36010;BME280;22076;52.182;5.404;2024-01-30T11:55:23;102825.13;;;11.90;100.00
36010;BME280;22076;52.182;5.404;2024-01-30T11:57:50;102821.00;;;11.82;100.00
36010;BME280;22076;52.182;5.404;2024-01-30T12:00:18;102821.44;;;11.98;100.00
36010;BME280;22076;52.182;5.404;2024-01-30T12:02:50;102825.88;;;11.94;100.00
36010;BME280;22076;52.182;5.404;2024-01-30T12:05:21;102821.53;;;11.93;100.00
36010;BME280;22076;52.182;5.404;2024-01-30T12:07:48;102834.16;;;11.80;100.00
36010;BME280;22076;52.182;5.404;2024-01-30T12:10:15;102834.91;;;11.84;100.00
36010;BME280;22076;52.182;5.404;2024-01-30T12:12:44;102826.88;;;11.90;100.00
36010;BME280;22076;52.182;5.404;2024-01-30T12:15:12;102842.94;;;11.78;100.00
36010;BME280;22076;52.182;5.404;2024-01-30T12:17:39;102846.28;;;11.83;100.00
36010;BME280;22076;52.182;5.404;2024-01-30T12:20:09;102844.78;;;11.74;100.00
36010;BME280;22076;52.182;5.404;2024-01-30T12:22:37;102858.84;;;11.71;100.00
36010;BME280;22076;52.182;5.404;2024-01-30T12:25:05;102861.09;;;11.54;100.00
36010;BME280;22076;52.182;5.404;2024-01-30T12:27:34;102867.47;;;11.44;100.00
36010;BME280;22076;52.182;5.404;2024-01-30T12:30:01;102870.19;;;11.40;100.00
36010;BME280;22076;52.182;5.404;2024-01-30T12:32:28;102888.88;;;11.27;100.00
36010;BME280;22076;52.182;5.404;2024-01-30T12:34:55;102885.16;;;11.34;100.00
36010;BME280;22076;52.182;5.404;2024-01-30T12:37:24;102891.34;;;11.31;100.00
36010;BME280;22076;52.182;5.404;2024-01-30T12:39:51;102887.53;;;11.45;100.00
36010;BME280;22076;52.182;5.404;2024-01-30T12:42:19;102868.72;;;11.30;100.00
36010;BME280;22076;52.182;5.404;2024-01-30T12:44:47;102884.63;;;11.21;100.00